createdAt,value
2023-01-09T00:02:25.890Z,17.77
2023-01-09T00:04:54.748Z,17.74
2023-01-09T00:07:22.207Z,17.75
2023-01-09T00:09:50.486Z,17.80
2023-01-09T00:12:18.071Z,17.74
2023-01-09T00:14:45.626Z,17.73
2023-01-09T00:17:13.033Z,17.81
2023-01-09T00:19:40.709Z,17.83
2023-01-09T00:22:09.706Z,17.74
2023-01-09T00:24:37.417Z,17.78
2023-01-09T00:27:05.973Z,17.71
2023-01-09T00:29:33.542Z,17.81
2023-01-09T00:32:01.063Z,17.81
2023-01-09T00:34:29.069Z,17.79
2023-01-09T00:36:57.054Z,17.83
2023-01-09T00:39:25.963Z,17.80
2023-01-09T00:41:56.394Z,17.80
2023-01-09T00:44:25.961Z,17.73
2023-01-09T00:46:56.702Z,17.77
2023-01-09T00:49:24.851Z,17.78
2023-01-09T00:51:55.175Z,17.77
2023-01-09T00:54:23.590Z,17.82
2023-01-09T00:56:52.495Z,17.84
2023-01-09T00:59:19.966Z,17.82
2023-01-09T01:01:47.556Z,17.83
2023-01-09T01:04:15.116Z,17.79
2023-01-09T01:06:42.589Z,17.80
2023-01-09T01:09:10.092Z,17.81
2023-01-09T01:11:37.576Z,17.76
2023-01-09T01:14:06.448Z,17.82
2023-01-09T01:16:33.984Z,17.72
2023-01-09T01:19:01.476Z,17.81
2023-01-09T01:21:28.928Z,17.80
2023-01-09T01:23:56.366Z,17.84
2023-01-09T01:26:24.408Z,17.83
2023-01-09T01:28:51.870Z,17.88
2023-01-09T01:31:21.289Z,17.86
2023-01-09T01:33:48.791Z,17.75
2023-01-09T01:36:16.225Z,17.73
2023-01-09T01:38:44.509Z,17.84
2023-01-09T01:41:11.955Z,17.81
2023-01-09T01:43:52.860Z,17.74
2023-01-09T01:46:22.093Z,17.71
2023-01-09T01:48:54.365Z,17.87
2023-01-09T01:51:25.107Z,17.81
2023-01-09T01:53:59.643Z,17.78
2023-01-09T01:56:30.519Z,17.78
2023-01-09T01:59:03.522Z,17.80
2023-01-09T02:01:33.003Z,17.88
2023-01-09T02:04:02.451Z,17.89
2023-01-09T02:06:31.060Z,17.80
2023-01-09T02:08:58.724Z,17.81
2023-01-09T02:11:27.264Z,17.88
2023-01-09T02:13:54.768Z,17.83
2023-01-09T02:16:44.623Z,17.88
2023-01-09T02:19:35.554Z,17.84
2023-01-09T02:22:12.835Z,17.85
2023-01-09T02:25:08.482Z,18.00
2023-01-09T02:28:08.883Z,17.99
2023-01-09T02:30:43.979Z,18.01
2023-01-09T02:33:42.633Z,17.95
2023-01-09T02:36:21.722Z,17.87
2023-01-09T02:38:59.980Z,17.98
2023-01-09T02:41:33.435Z,17.97
2023-01-09T02:44:16.314Z,17.85
2023-01-09T02:46:45.285Z,17.93
2023-01-09T02:49:13.809Z,17.81
2023-01-09T02:51:49.972Z,17.81
2023-01-09T02:54:29.556Z,16.13
2023-01-09T02:57:11.801Z,17.35
2023-01-09T02:59:54.028Z,17.30
2023-01-09T03:02:39.244Z,17.37
2023-01-09T03:05:13.809Z,17.09
2023-01-09T03:07:45.699Z,17.23
2023-01-09T03:10:20.222Z,17.34
2023-01-09T03:12:52.720Z,17.38
2023-01-09T03:15:24.737Z,17.36
2023-01-09T03:17:55.924Z,17.47
2023-01-09T03:20:26.208Z,17.42
2023-01-09T03:22:55.047Z,17.36
2023-01-09T03:25:22.699Z,17.63
2023-01-09T03:27:54.123Z,17.54
2023-01-09T03:30:21.998Z,17.57
2023-01-09T03:32:50.129Z,17.69
2023-01-09T03:35:19.023Z,17.63
2023-01-09T03:37:46.819Z,17.71
2023-01-09T03:40:14.704Z,17.77
2023-01-09T03:42:42.295Z,17.73
2023-01-09T03:45:10.336Z,17.78
2023-01-09T03:47:37.815Z,17.69
2023-01-09T03:50:06.361Z,17.83
2023-01-09T03:52:35.366Z,17.89
2023-01-09T03:55:02.940Z,17.97
2023-01-09T03:57:30.420Z,18.07
2023-01-09T03:59:57.901Z,18.20
2023-01-09T04:02:25.415Z,18.12
2023-01-09T04:04:53.075Z,18.04
2023-01-09T04:07:20.492Z,16.81
2023-01-09T04:09:49.930Z,18.17
2023-01-09T04:12:17.546Z,17.97
2023-01-09T04:14:45.136Z,17.88
2023-01-09T04:17:12.626Z,17.70
2023-01-09T04:19:40.096Z,18.09
2023-01-09T04:22:08.397Z,18.31
2023-01-09T04:24:36.373Z,18.03
2023-01-09T04:27:05.393Z,18.06
2023-01-09T04:29:32.920Z,18.20
2023-01-09T04:32:00.495Z,18.24
2023-01-09T04:34:28.117Z,18.41
2023-01-09T04:36:55.737Z,18.29
2023-01-09T04:39:23.479Z,18.37
2023-01-09T04:41:51.016Z,17.47
2023-01-09T04:44:21.785Z,17.95
2023-01-09T04:46:49.666Z,17.78
2023-01-09T04:49:17.316Z,17.90
2023-01-09T04:51:44.838Z,18.12
2023-01-09T04:54:12.340Z,18.51
2023-01-09T04:56:40.220Z,18.28
2023-01-09T04:59:08.153Z,18.14
2023-01-09T05:01:37.496Z,17.84
2023-01-09T05:04:05.987Z,17.97
2023-01-09T05:06:33.618Z,18.55
2023-01-09T05:09:01.696Z,18.26
2023-01-09T05:11:29.401Z,18.44
2023-01-09T05:13:57.230Z,18.48
2023-01-09T05:16:24.984Z,18.48
2023-01-09T05:18:53.901Z,18.54
2023-01-09T05:21:21.586Z,18.53
2023-01-09T05:23:49.180Z,18.35
2023-01-09T05:26:16.690Z,18.54
2023-01-09T05:28:44.090Z,18.51
2023-01-09T05:31:11.699Z,18.34
2023-01-09T05:33:39.309Z,18.47
2023-01-09T05:36:09.493Z,18.77
2023-01-09T05:38:37.132Z,18.61
2023-01-09T05:41:04.788Z,18.69
2023-01-09T05:43:32.222Z,18.61
2023-01-09T05:45:59.787Z,18.57
2023-01-09T05:48:27.310Z,18.42
2023-01-09T05:50:54.923Z,18.44
2023-01-09T05:53:23.972Z,18.26
2023-01-09T05:55:51.889Z,17.87
2023-01-09T05:58:19.352Z,17.73
2023-01-09T06:00:46.920Z,17.42
2023-01-09T06:03:14.388Z,17.34
2023-01-09T06:05:41.913Z,17.14
2023-01-09T06:08:09.369Z,16.88
2023-01-09T06:10:38.353Z,16.95
2023-01-09T06:13:05.949Z,16.65
2023-01-09T06:15:33.344Z,16.84
2023-01-09T06:18:00.947Z,17.14
2023-01-09T06:20:28.688Z,17.15
2023-01-09T06:22:56.472Z,16.95
2023-01-09T06:25:24.150Z,16.75
2023-01-09T06:27:54.031Z,16.89
2023-01-09T06:30:21.935Z,16.77
2023-01-09T06:32:50.395Z,16.94
2023-01-09T06:35:18.788Z,16.86
2023-01-09T06:37:46.628Z,16.97
2023-01-09T06:40:15.338Z,17.09
2023-01-09T06:42:46.483Z,16.91
2023-01-09T06:45:16.773Z,16.87
2023-01-09T06:47:44.667Z,16.78
2023-01-09T06:50:12.984Z,16.83
2023-01-09T06:52:40.632Z,16.80
2023-01-09T06:55:09.455Z,16.70
2023-01-09T06:57:37.502Z,16.94
2023-01-09T07:00:06.138Z,16.64
2023-01-09T07:02:35.186Z,16.63
2023-01-09T07:05:03.005Z,16.78
2023-01-09T07:07:30.635Z,16.80
2023-01-09T07:09:58.231Z,16.77
2023-01-09T07:12:26.594Z,16.47
2023-01-09T07:14:56.180Z,16.53
2023-01-09T07:17:25.004Z,16.47
2023-01-09T07:19:54.112Z,16.56
2023-01-09T07:22:21.696Z,16.52
2023-01-09T07:24:49.213Z,16.51
2023-01-09T07:27:17.892Z,16.62
2023-01-09T07:29:45.824Z,16.64
2023-01-09T07:32:13.307Z,16.38
2023-01-09T07:34:41.020Z,16.40
2023-01-09T07:37:09.926Z,16.21
2023-01-09T07:39:37.473Z,16.12
2023-01-09T07:42:05.147Z,16.11
2023-01-09T07:44:33.283Z,16.11
2023-01-09T07:47:01.028Z,16.15
2023-01-09T07:49:28.479Z,16.04
2023-01-09T07:51:56.724Z,16.14
2023-01-09T07:54:25.806Z,16.10
2023-01-09T07:56:53.324Z,16.07
2023-01-09T07:59:21.627Z,15.99
2023-01-09T08:01:49.414Z,15.99
2023-01-09T08:04:17.138Z,16.07
2023-01-09T08:06:45.731Z,15.98
2023-01-09T08:09:13.864Z,16.26
2023-01-09T08:11:43.015Z,16.23
2023-01-09T08:14:11.503Z,16.16
2023-01-09T08:16:39.391Z,16.28
2023-01-09T08:19:06.957Z,16.23
2023-01-09T08:21:34.459Z,16.16
2023-01-09T08:24:02.488Z,15.93
2023-01-09T08:26:30.819Z,15.87
2023-01-09T08:29:00.230Z,15.93
2023-01-09T08:31:27.770Z,15.98
2023-01-09T08:33:55.392Z,16.01
2023-01-09T08:36:22.943Z,16.00
2023-01-09T08:38:50.646Z,15.97
2023-01-09T08:41:18.132Z,15.99
2023-01-09T08:43:45.706Z,15.99
2023-01-09T08:46:21.593Z,15.90
2023-01-09T08:48:49.467Z,15.84
2023-01-09T08:51:17.209Z,15.98
2023-01-09T08:53:44.798Z,15.95
2023-01-09T08:56:12.374Z,15.88
2023-01-09T08:58:39.939Z,15.86
2023-01-09T09:01:08.300Z,15.96
2023-01-09T09:03:37.708Z,15.99
2023-01-09T09:06:06.223Z,15.91
2023-01-09T09:08:33.648Z,15.85
2023-01-09T09:11:01.462Z,15.85
2023-01-09T09:13:29.178Z,16.17
2023-01-09T09:15:56.984Z,16.27
2023-01-09T09:18:24.671Z,16.17
2023-01-09T09:20:53.728Z,16.41
2023-01-09T09:23:21.289Z,16.56
2023-01-09T09:25:49.030Z,16.29
2023-01-09T09:28:16.724Z,16.03
2023-01-09T09:30:44.553Z,16.02
2023-01-09T09:33:12.581Z,15.93
2023-01-09T09:35:40.498Z,16.03
2023-01-09T09:38:11.072Z,16.08
2023-01-09T09:40:56.911Z,16.14
2023-01-09T09:43:54.137Z,15.94
2023-01-09T09:46:30.234Z,16.02
2023-01-09T09:49:02.812Z,16.20
2023-01-09T09:51:49.580Z,16.13
2023-01-09T09:54:24.208Z,16.10
2023-01-09T09:56:56.819Z,16.07
2023-01-09T09:59:27.714Z,16.27
2023-01-09T10:01:59.230Z,16.16
2023-01-09T10:04:31.048Z,16.32
2023-01-09T10:07:01.950Z,16.27
2023-01-09T10:09:40.996Z,16.27
2023-01-09T10:12:18.238Z,16.40
2023-01-09T10:14:45.915Z,16.40
2023-01-09T10:17:29.124Z,16.35
2023-01-09T10:20:20.301Z,16.43
2023-01-09T10:22:59.723Z,16.37
2023-01-09T10:25:37.199Z,16.38
2023-01-09T10:28:20.935Z,16.02
2023-01-09T10:30:52.574Z,16.26
2023-01-09T10:33:35.700Z,15.89
2023-01-09T10:36:40.508Z,14.90
2023-01-09T10:39:15.484Z,15.14
2023-01-09T10:41:54.715Z,15.61
2023-01-09T10:44:27.641Z,15.69
2023-01-09T10:46:56.525Z,15.91
2023-01-09T10:49:24.798Z,15.85
2023-01-09T10:51:59.429Z,15.88
2023-01-09T10:54:30.072Z,15.71
2023-01-09T10:57:06.309Z,15.70
2023-01-09T10:59:34.073Z,15.74
2023-01-09T11:02:02.038Z,15.50
2023-01-09T11:04:32.699Z,15.66
2023-01-09T11:07:03.500Z,15.57
2023-01-09T11:09:55.555Z,15.58
2023-01-09T11:12:26.451Z,15.68
2023-01-09T11:14:53.983Z,15.57
2023-01-09T11:17:27.279Z,15.84
2023-01-09T11:20:03.100Z,15.80
2023-01-09T11:22:43.342Z,15.95
2023-01-09T11:25:13.891Z,15.66
2023-01-09T11:27:43.400Z,15.50
2023-01-09T11:30:18.307Z,15.48
2023-01-09T11:32:47.519Z,15.53
2023-01-09T11:35:19.859Z,15.42
2023-01-09T11:37:49.887Z,15.51
2023-01-09T11:40:20.713Z,15.53
2023-01-09T11:43:14.570Z,15.60
2023-01-09T11:45:56.375Z,15.49
2023-01-09T11:48:40.949Z,15.46
2023-01-09T11:51:21.089Z,15.47
2023-01-09T11:54:01.255Z,15.37
2023-01-09T11:56:29.923Z,15.72
2023-01-09T11:58:59.555Z,15.15
2023-01-09T12:01:45.494Z,15.25
2023-01-09T12:04:21.333Z,15.48
2023-01-09T12:07:00.207Z,15.28
2023-01-09T12:09:37.320Z,15.34
2023-01-09T12:12:18.494Z,15.30
2023-01-09T12:15:10.025Z,15.30
2023-01-09T12:17:52.706Z,15.26
2023-01-09T12:20:45.933Z,15.24
2023-01-09T12:23:25.981Z,15.26
2023-01-09T12:26:05.888Z,15.25
2023-01-09T12:28:54.571Z,15.38
2023-01-09T12:31:40.078Z,15.31
2023-01-09T12:34:24.960Z,15.24
2023-01-09T12:37:02.820Z,15.20
2023-01-09T12:39:37.395Z,15.20
2023-01-09T12:42:29.259Z,15.31
2023-01-09T12:45:01.824Z,15.46
2023-01-09T12:47:45.200Z,15.25
2023-01-09T12:50:48.196Z,15.20
2023-01-09T12:53:21.496Z,15.38
2023-01-09T12:55:54.058Z,15.50
2023-01-09T12:58:31.079Z,15.28
2023-01-09T13:01:02.696Z,15.31
2023-01-09T13:03:37.440Z,15.40
2023-01-09T13:06:11.356Z,15.53
2023-01-09T13:08:43.478Z,15.39
2023-01-09T13:11:20.442Z,15.52
2023-01-09T13:13:54.702Z,15.39
2023-01-09T13:16:28.695Z,15.65
2023-01-09T13:19:03.836Z,15.64
2023-01-09T13:21:31.976Z,15.74
2023-01-09T13:24:07.308Z,17.46
2023-01-09T13:26:40.368Z,17.45
2023-01-09T13:29:12.971Z,17.63
2023-01-09T13:31:57.014Z,17.03
2023-01-09T13:34:29.681Z,16.78
2023-01-09T13:36:59.105Z,16.82
2023-01-09T13:39:29.375Z,16.72
2023-01-09T13:41:59.976Z,16.99
2023-01-09T13:44:29.034Z,17.13
2023-01-09T13:46:58.766Z,16.99
2023-01-09T13:49:30.923Z,17.05
2023-01-09T13:52:01.247Z,17.10
2023-01-09T13:55:03.654Z,17.16
2023-01-09T13:57:34.101Z,17.66
2023-01-09T14:00:39.232Z,17.27
2023-01-09T14:03:19.975Z,17.36
2023-01-09T14:06:11.538Z,17.46
2023-01-09T14:08:40.661Z,17.26
2023-01-09T14:11:08.967Z,17.89
2023-01-09T14:13:41.498Z,17.32
2023-01-09T14:16:17.946Z,17.69
2023-01-09T14:18:50.915Z,18.06
2023-01-09T14:21:20.895Z,17.26
2023-01-09T14:23:59.232Z,17.56
2023-01-09T14:26:45.263Z,17.25
2023-01-09T14:29:44.699Z,17.66
2023-01-09T14:32:43.795Z,17.51
2023-01-09T14:35:16.631Z,17.46
2023-01-09T14:37:55.423Z,17.51
2023-01-09T14:40:24.276Z,17.81
2023-01-09T14:42:54.759Z,17.89
2023-01-09T14:45:24.405Z,17.45
2023-01-09T14:47:57.160Z,17.43
2023-01-09T14:50:32.459Z,17.26
2023-01-09T14:53:05.391Z,17.52
2023-01-09T14:55:40.416Z,17.56
2023-01-09T14:58:12.683Z,17.37
2023-01-09T15:00:49.639Z,17.43
2023-01-09T15:03:17.585Z,17.53
2023-01-09T15:05:46.651Z,16.59
2023-01-09T15:08:20.060Z,15.97
2023-01-09T15:10:51.176Z,16.98
2023-01-09T15:13:23.694Z,16.01
2023-01-09T15:15:51.455Z,16.96
2023-01-09T15:18:23.454Z,16.64
2023-01-09T15:20:59.189Z,16.80
2023-01-09T15:23:30.053Z,17.05
2023-01-09T15:25:58.369Z,17.14
2023-01-09T15:28:29.640Z,17.05
2023-01-09T15:31:03.078Z,17.17
2023-01-09T15:33:31.501Z,17.24
2023-01-09T15:35:59.591Z,17.47
2023-01-09T15:38:31.471Z,17.19
2023-01-09T15:41:01.213Z,17.29
2023-01-09T15:43:31.307Z,17.15
2023-01-09T15:45:59.355Z,17.33
2023-01-09T15:48:28.927Z,17.24
2023-01-09T15:51:01.390Z,17.16
2023-01-09T15:53:30.821Z,17.27
2023-01-09T15:56:07.741Z,17.14
2023-01-09T15:58:37.933Z,17.22
2023-01-09T16:01:08.380Z,17.20
2023-01-09T16:03:37.378Z,17.21
2023-01-09T16:06:09.351Z,16.80
2023-01-09T16:08:41.631Z,17.19
2023-01-09T16:11:20.752Z,17.22
2023-01-09T16:13:48.563Z,17.37
2023-01-09T16:16:25.659Z,17.18
2023-01-09T16:18:54.516Z,17.26
2023-01-09T16:21:25.293Z,17.30
2023-01-09T16:24:25.461Z,17.34
2023-01-09T16:27:11.083Z,17.26
2023-01-09T16:29:45.548Z,17.36
2023-01-09T16:32:19.899Z,17.44
2023-01-09T16:34:52.337Z,17.48
2023-01-09T16:37:21.081Z,17.30
2023-01-09T16:40:25.925Z,17.44
2023-01-09T16:42:55.827Z,17.48
2023-01-09T16:45:25.803Z,17.34
2023-01-09T16:47:53.375Z,17.34
2023-01-09T16:50:21.145Z,17.44
2023-01-09T16:52:48.764Z,17.36
2023-01-09T16:55:18.176Z,17.70
2023-01-09T16:57:46.064Z,17.39
2023-01-09T17:00:16.355Z,17.39
2023-01-09T17:02:44.514Z,17.53
2023-01-09T17:05:13.208Z,17.45
2023-01-09T17:07:41.288Z,17.41
2023-01-09T17:10:21.690Z,17.34
2023-01-09T17:12:50.016Z,17.52
2023-01-09T17:15:19.258Z,17.43
2023-01-09T17:17:46.936Z,17.52
2023-01-09T17:20:16.456Z,17.70
2023-01-09T17:22:44.413Z,17.59
2023-01-09T17:25:15.642Z,17.54
2023-01-09T17:27:45.957Z,17.48
2023-01-09T17:30:18.742Z,17.46
2023-01-09T17:32:46.698Z,17.39
2023-01-09T17:35:14.673Z,17.57
2023-01-09T17:37:42.713Z,17.66
2023-01-09T17:40:18.063Z,17.64
2023-01-09T17:42:47.115Z,17.60
2023-01-09T17:45:15.608Z,17.58
2023-01-09T17:47:43.112Z,17.44
2023-01-09T17:50:18.210Z,17.48
2023-01-09T17:52:45.912Z,17.54
2023-01-09T17:55:13.503Z,17.65
2023-01-09T17:57:43.203Z,17.68
2023-01-09T18:00:24.343Z,17.46
2023-01-09T18:02:51.947Z,17.56
2023-01-09T18:05:19.746Z,17.75
2023-01-09T18:07:47.641Z,17.79
2023-01-09T18:10:17.034Z,17.78
2023-01-09T18:12:48.254Z,17.56
2023-01-09T18:15:17.722Z,17.56
2023-01-09T18:17:46.525Z,17.70
2023-01-09T18:20:15.063Z,17.59
2023-01-09T18:22:46.199Z,17.70
2023-01-09T18:25:13.766Z,17.65
2023-01-09T18:27:42.210Z,17.60
2023-01-09T18:30:12.496Z,17.65
2023-01-09T18:32:41.857Z,17.79
2023-01-09T18:35:10.077Z,17.73
2023-01-09T18:37:38.155Z,17.74
2023-01-09T18:40:06.764Z,17.56
2023-01-09T18:42:34.282Z,17.64
2023-01-09T18:45:01.750Z,17.72
2023-01-09T18:47:29.338Z,18.00
2023-01-09T18:49:58.433Z,17.85
2023-01-09T18:52:25.985Z,17.87
2023-01-09T18:54:53.585Z,17.87
2023-01-09T18:57:21.337Z,17.71
2023-01-09T18:59:48.917Z,17.70
2023-01-09T19:02:20.213Z,17.77
2023-01-09T19:04:47.890Z,17.75
2023-01-09T19:07:17.336Z,17.73
2023-01-09T19:09:45.497Z,17.76
2023-01-09T19:12:13.254Z,17.71
2023-01-09T19:14:40.823Z,17.65
2023-01-09T19:17:08.384Z,17.70
2023-01-09T19:19:35.923Z,17.66
2023-01-09T19:22:03.352Z,17.79
2023-01-09T19:24:32.349Z,17.66
2023-01-09T19:27:00.663Z,17.82
2023-01-09T19:29:28.417Z,17.79
2023-01-09T19:31:56.033Z,17.72
2023-01-09T19:34:23.612Z,17.74
2023-01-09T19:36:51.600Z,18.05
2023-01-09T19:39:19.229Z,17.83
2023-01-09T19:41:48.128Z,17.61
2023-01-09T19:44:15.606Z,17.71
2023-01-09T19:46:43.035Z,17.77
2023-01-09T19:49:10.612Z,17.81
2023-01-09T19:51:38.125Z,17.86
2023-01-09T19:54:08.731Z,17.27
2023-01-09T19:56:36.409Z,17.92
2023-01-09T19:59:05.799Z,17.63
2023-01-09T20:01:35.406Z,17.70
2023-01-09T20:04:05.547Z,18.02
2023-01-09T20:06:33.581Z,17.53
2023-01-09T20:09:02.549Z,17.52
2023-01-09T20:11:31.615Z,17.53
2023-01-09T20:13:59.485Z,17.65
2023-01-09T20:16:30.257Z,17.54
2023-01-09T20:18:59.769Z,17.67
2023-01-09T20:21:28.716Z,17.78
2023-01-09T20:23:58.903Z,17.53
2023-01-09T20:26:27.652Z,17.78
2023-01-09T20:28:55.689Z,17.19
2023-01-09T20:31:24.208Z,17.42
2023-01-09T20:33:53.131Z,17.61
2023-01-09T20:36:21.014Z,17.43
2023-01-09T20:38:48.739Z,17.68
2023-01-09T20:41:17.259Z,17.64
2023-01-09T20:43:44.683Z,17.75
2023-01-09T20:46:12.184Z,17.52
2023-01-09T20:48:39.651Z,17.55
2023-01-09T20:51:09.033Z,17.53
2023-01-09T20:53:36.530Z,17.58
2023-01-09T20:56:06.269Z,17.80
2023-01-09T20:58:33.515Z,17.53
2023-01-09T21:01:06.204Z,17.50
2023-01-09T21:03:33.913Z,17.61
2023-01-09T21:06:04.751Z,17.93
2023-01-09T21:08:34.440Z,17.55
2023-01-09T21:11:02.281Z,17.63
2023-01-09T21:13:30.098Z,17.53
2023-01-09T21:16:01.362Z,17.54
2023-01-09T21:18:28.945Z,17.66
2023-01-09T21:20:56.763Z,17.89
2023-01-09T21:23:24.524Z,18.01
2023-01-09T21:25:53.474Z,17.68
2023-01-09T21:28:20.911Z,17.72
2023-01-09T21:30:48.584Z,17.73
2023-01-09T21:33:16.841Z,17.65
2023-01-09T21:35:44.295Z,17.68
2023-01-09T21:38:12.055Z,17.54
2023-01-09T21:40:39.600Z,17.88
2023-01-09T21:43:10.471Z,17.87
2023-01-09T21:45:38.568Z,17.56
2023-01-09T21:48:07.033Z,17.97
2023-01-09T21:50:35.092Z,17.80
2023-01-09T21:53:02.832Z,17.83
2023-01-09T21:55:30.430Z,17.81
2023-01-09T21:57:58.185Z,18.08
2023-01-09T22:00:28.109Z,17.69
2023-01-09T22:02:55.936Z,17.75
2023-01-09T22:05:23.611Z,17.83
2023-01-09T22:07:51.179Z,17.87
2023-01-09T22:10:18.961Z,17.92
2023-01-09T22:12:50.388Z,17.95
2023-01-09T22:15:17.831Z,17.73
2023-01-09T22:17:46.742Z,17.66
2023-01-09T22:20:14.420Z,17.77
2023-01-09T22:22:41.976Z,17.82
2023-01-09T22:25:10.144Z,17.73
2023-01-09T22:27:37.616Z,17.78
2023-01-09T22:30:06.019Z,17.82
2023-01-09T22:32:35.093Z,17.92
2023-01-09T22:35:05.784Z,17.98
2023-01-09T22:37:34.240Z,18.04
2023-01-09T22:40:02.091Z,17.87
2023-01-09T22:42:29.532Z,17.86
2023-01-09T22:44:56.953Z,17.95
2023-01-09T22:47:24.391Z,17.97
2023-01-09T22:49:53.359Z,18.03
2023-01-09T22:52:23.226Z,17.80
2023-01-09T22:54:50.735Z,17.92
2023-01-09T22:57:18.174Z,17.86
2023-01-09T22:59:45.613Z,17.86
2023-01-09T23:02:13.189Z,17.73
2023-01-09T23:04:40.819Z,17.88
2023-01-09T23:07:08.260Z,17.90
2023-01-09T23:09:37.483Z,17.94
2023-01-09T23:12:05.814Z,18.13
2023-01-09T23:14:35.617Z,18.10
2023-01-09T23:17:02.706Z,17.97
2023-01-09T23:19:30.654Z,17.75
2023-01-09T23:21:58.216Z,17.82
2023-01-09T23:24:27.933Z,17.78
2023-01-09T23:26:58.079Z,17.79
2023-01-09T23:29:26.338Z,17.85
2023-01-09T23:31:54.034Z,18.02
2023-01-09T23:34:22.937Z,17.82
2023-01-09T23:36:51.120Z,17.74
2023-01-09T23:39:18.682Z,18.18
2023-01-09T23:41:46.148Z,17.91
2023-01-09T23:44:15.078Z,17.87
2023-01-09T23:46:42.505Z,17.84
2023-01-09T23:49:10.129Z,17.89
2023-01-09T23:51:37.535Z,17.89
2023-01-09T23:54:06.962Z,17.83
2023-01-09T23:56:34.815Z,17.82
2023-01-09T23:59:04.744Z,17.91
